Tetiaroa Airport

NTTE · Îles du Vent, French Polynesia

METAR anciennes NTTE · Tetiaroa Airport

Tu vois ci-dessous les METAR des derniers jours. Sélectionne une année pour parcourir les METAR plus anciens, à partir de l'année 2007.

15 juillet 2024

Temps Code Temps Temp. Vue Base cloud Vent METAR/SPECI
01:30
M
26 °C 10 km+ 2.000 ft 020° 020° 8 kt METAR NTAA 151130Z AUTO 02008KT 9999 BKN020 BKN026 BKN039 26/23 Q1011 NOSIG
01:00
M
26 °C 10 km+ 2.000 ft 030° 030° 7 kt METAR NTAA 151100Z AUTO 03007KT 360V060 9999 BKN020 BKN028 BKN033 26/23 Q1012 NOSIG
00:30
M
27 °C 10 km+ 2.100 ft 010° 010° 8 kt METAR NTAA 151030Z AUTO 01008KT 9999 BKN021 BKN027 BKN033 27/23 Q1012 NOSIG
00:00
M
27 °C 10 km+ 2.600 ft 360° 360° 10 kt METAR NTAA 151000Z AUTO 36010KT 9999 SCT020 BKN026 27/23 Q1012 NOSIG

14 juillet 2024

Temps Code Temps Temp. Vue Base cloud Vent METAR/SPECI
23:30
M
27 °C 10 km+ 2.000 ft 010° 010° 11 kt METAR NTAA 150930Z AUTO 01011KT 9999 BKN020 BKN029 27/23 Q1012 NOSIG
23:00
M
27 °C 10 km+ 2.600 ft 360° 360° 10 kt METAR NTAA 150900Z AUTO 36010KT 9999 SCT020 BKN026 27/23 Q1013 NOSIG
22:30
M
26 °C 10 km+ 2.000 ft 020° 020° 9 kt METAR NTAA 150830Z AUTO 02009KT 9999 BKN020 BKN027 BKN034 26/23 Q1013 NOSIG
22:00
M
26 °C 10 km+ 2.300 ft 030° 030° 8 kt METAR NTAA 150800Z AUTO 03008KT 9999 BKN023 BKN031 26/24 Q1013 BECMG 33010KT
21:30
M
26 °C 10 km+ 2.100 ft 030° 030° 8 kt METAR NTAA 150730Z AUTO 03008KT 9999 BKN021 BKN026 BKN041 26/23 Q1013 BECMG 33010KT
21:00
V
27 °C 10 km+ 3.900 ft 030° 030° 10 kt METAR NTAA 150700Z AUTO 03010KT 9999 FEW021 SCT032 BKN039 27/23 Q1013 BECMG 33010KT
20:30
M
27 °C 10 km+ 2.200 ft 020° 020° 10 kt METAR NTAA 150630Z AUTO 02010KT 9999 BKN022 BKN035 27/24 Q1013 NOSIG
20:00
M
27 °C 10 km+ 2.100 ft 020° 020° 12 kt METAR NTAA 150600Z AUTO 02012KT 9999 BKN021 BKN031 BKN037 27/24 Q1013 NOSIG
19:30
M
27 °C 10 km+ 1.800 ft 020° 020° 13 kt METAR NTAA 150530Z AUTO 02013KT 9999 BKN018 BKN025 BKN031 27/24 Q1013 NOSIG
19:00
M
27 °C 10 km+ 3.000 ft 040° 040° 10 kt METAR NTAA 150500Z AUTO 04010KT 9999 FEW021 BKN030 BKN039 27/24 Q1012 TEMPO 3000 SHRA
18:30
V
27 °C 10 km+ - 030° 030° 13 kt METAR NTAA 150430Z AUTO 03013KT 9999 FEW019 27/24 Q1012 TEMPO 3000 SHRA
18:00
V
27 °C 10 km+ - 030° 030° 13 kt METAR NTAA 150400Z AUTO 03013KT 9999 FEW019 SCT033 27/24 Q1012 TEMPO 3000 SHRA
17:30
V
27 °C 10 km+ - 020° 020° 15 kt METAR NTAA 150330Z AUTO 02015KT 9999 FEW018 SCT140 27/24 Q1012 TEMPO 3000 SHRA
17:00
V
27 °C 10 km+ - 020° 020° 13 kt METAR NTAA 150300Z AUTO 02013KT 9999 FEW019 SCT140 27/24 Q1012 TEMPO 3000 SHRA
16:30
M
28 °C 10 km+ 2.400 ft 020° 020° 13 kt METAR NTAA 150230Z AUTO 02013KT 9999 SCT018 BKN024 BKN033 28/24 Q1011 TEMPO 3000 SHRA
16:00
M
28 °C 10 km+ 1.900 ft 020° 020° 13 kt METAR NTAA 150200Z AUTO 02013KT 9999 BKN019 BKN025 OVC052 28/25 Q1011 TEMPO 3000 SHRA
15:30
I
26 °C 4,7 km 1.700 ft 030° 030° 10 kt METAR NTAA 150130Z AUTO 03010KT 4700 -RA BR BKN017 BKN028 BKN041 26/24 Q1011 TEMPO SHRA
15:00
M
28 °C 7 km 2.200 ft 030° 030° 13 kt METAR NTAA 150100Z AUTO 03013KT 7000 BKN022 BKN040 BKN140 28/23 Q1012 NOSIG
14:30
M
29 °C 7 km - 040° 040° 14 kt METAR NTAA 150030Z AUTO 04014KT 7000 FEW022 SCT140 29/24 Q1012 NOSIG
14:00
M
29 °C 6 km 1.900 ft 030° 030° 16 kt METAR NTAA 150000Z AUTO 03016KT 6000 BKN019 OVC140 29/23 Q1012 NOSIG
13:30
M
29 °C 6 km 1.900 ft 020° 020° 16 kt METAR NTAA 142330Z AUTO 02016KT 6000 BKN019 BKN024 BKN030 29/24 Q1012 NOSIG
13:00
M
27 °C 6 km 1.900 ft 030° 030° 15 kt METAR NTAA 142300Z AUTO 03015KT 6000 BKN019 BKN028 BKN035 27/24 Q1012 BECMG 05015G25KT
12:30
I
28 °C 3,4 km - 050° 050° 16 kt METAR NTAA 142230Z AUTO 05016KT 3400 BR FEW043 SCT140 28/24 Q1013 BECMG 05015G25KT 9999 NSW
12:00
I
28 °C 3,9 km - 050° 050° 16 kt METAR NTAA 142200Z AUTO 05016KT 3900 BR FEW018 SCT140 28/24 Q1013 BECMG 05015G25KT 9999 NSW
11:30
V
28 °C 10 km+ 5.200 ft 050° 050° 16 kt METAR NTAA 142130Z AUTO 05016KT 9999 FEW026 SCT037 BKN052 28/24 Q1013 BECMG 05015G25KT
11:00
V
28 °C 10 km+ 15.000 ft 050° 050° 17 kt METAR NTAA 142100Z AUTO 05017KT 9999 FEW026 BKN150 28/23 Q1014 TEMPO 05020G30KT
10:30
V
29 °C 10 km+ - 050° 050° 18 kt METAR NTAA 142030Z AUTO 05018KT 9999 FEW028 29/23 Q1014 TEMPO 05020G30KT
10:00
V
28 °C 10 km+ - 050° 050° 16 kt METAR NTAA 142000Z AUTO 05016KT CAVOK 28/22 Q1014 TEMPO 05020G30KT
09:30
V
28 °C 10 km+ - 050° 050° 14 kt METAR NTAA 141930Z AUTO 05014KT 9999 FEW032 28/22 Q1015 TEMPO 05020G30KT
09:00
V
28 °C 10 km+ - 050° 050° 14 kt METAR NTAA 141900Z AUTO 05014KT 030V090 CAVOK 28/21 Q1015 TEMPO 05020G30KT
08:30
V
28 °C 10 km+ - 060° 060° 14 kt METAR NTAA 141830Z AUTO 06014KT CAVOK 28/21 Q1015 TEMPO 05020G30KT
08:00
V
27 °C 10 km+ - 050° 050° 13 kt METAR NTAA 141800Z AUTO 05013KT 9999 FEW044 27/22 Q1014 BECMG 05015G25KT
07:30
V
27 °C 10 km+ - 050° 050° 11 kt METAR NTAA 141730Z AUTO 05011KT CAVOK 27/21 Q1014 BECMG 05015G25KT
07:00
V
25 °C 10 km+ - 050° 050° 10 kt METAR NTAA 141700Z AUTO 05010KT CAVOK 25/20 Q1014 BECMG 05015G25KT
06:30
V
26 °C 10 km+ - 050° 050° 11 kt METAR NTAA 141630Z AUTO 05011KT CAVOK 26/21 Q1014 BECMG 05015G25KT
06:00
V
26 °C 10 km+ - 050° 050° 12 kt METAR NTAA 141600Z AUTO 05012KT CAVOK 26/21 Q1013 BECMG 05015G25KT
05:30
V
25 °C 10 km+ - 050° 050° 9 kt METAR NTAA 141530Z AUTO 05009KT CAVOK 25/19 Q1013 BECMG 05015G25KT
05:00
V
24 °C 10 km+ - 060° 060° 7 kt METAR NTAA 141500Z AUTO 06007KT 020V080 CAVOK 24/18 Q1012 BECMG 05015G25KT
04:30
V
23 °C 10 km+ - Var Var 2 kt METAR NTAA 141430Z AUTO VRB02KT CAVOK 23/19 Q1013 BECMG 05015G25KT
04:00
V
23 °C 10 km+ - 070° 070° 1 kt METAR NTAA 141400Z AUTO 07001KT CAVOK 23/20 Q1013 BECMG 05015G25KT
03:30
V
24 °C 10 km+ - 070° 070° 1 kt METAR NTAA 141330Z AUTO 07001KT CAVOK 24/20 Q1013 BECMG 05015G25KT
03:00
V
24 °C 10 km+ - 110° 110° 3 kt METAR NTAA 141300Z AUTO 11003KT 080V140 CAVOK 24/20 Q1013 BECMG 05015G25KT
02:30
V
24 °C 10 km+ - Var Var 2 kt METAR NTAA 141230Z AUTO VRB02KT CAVOK 24/20 Q1013 BECMG 05015G25KT
02:00
V
24 °C 10 km+ - Var Var 3 kt METAR NTAA 141200Z AUTO VRB03KT CAVOK 24/20 Q1013 BECMG 05015G25KT
01:30
V
24 °C 10 km+ - 100° 100° 3 kt METAR NTAA 141130Z AUTO 10003KT 050V140 CAVOK 24/20 Q1013 BECMG 05015G25KT
01:00
V
24 °C 10 km+ - 060° 060° 6 kt METAR NTAA 141100Z AUTO 06006KT 030V090 CAVOK 24/20 Q1013 BECMG 05015G25KT
00:30
V
24 °C 10 km+ - 060° 060° 6 kt METAR NTAA 141030Z AUTO 06006KT CAVOK 24/20 Q1014 BECMG 05015G25KT
00:00
V
24 °C 10 km+ - 050° 050° 5 kt METAR NTAA 141000Z AUTO 05005KT CAVOK 24/20 Q1014 BECMG 05015G25KT

13 juillet 2024

Temps Code Temps Temp. Vue Base cloud Vent METAR/SPECI
23:30
V
24 °C 10 km+ - 040° 040° 10 kt METAR NTAA 140930Z AUTO 04010KT CAVOK 24/21 Q1014 BECMG 05015G25KT
23:00
V
23 °C 10 km+ - 060° 060° 5 kt METAR NTAA 140900Z AUTO 06005KT CAVOK 23/20 Q1014 TEMPO 2000 SHRA SCT008 FEW015TCU BKN035 BECMG 05015G25KT
22:30
V
23 °C 10 km+ - 070° 070° 6 kt METAR NTAA 140830Z AUTO 07006KT 040V100 CAVOK 23/20 Q1014 TEMPO 2000 SHRA SCT008 FEW015TCU BKN035 BECMG 05015G25KT
22:00
V
24 °C 10 km+ - 070° 070° 4 kt METAR NTAA 140800Z AUTO 07004KT 040V110 CAVOK 24/21 Q1014 TEMPO 05020G30KT 2000 SHRA SCT008 FEW015TCU BKN035
21:30
V
24 °C 10 km+ - 080° 080° 6 kt METAR NTAA 140730Z AUTO 08006KT 050V120 CAVOK 24/21 Q1014 TEMPO 05020G30KT 2000 SHRA SCT008 FEW015TCU BKN035
21:00
V
23 °C 10 km+ 11.000 ft 070° 070° 4 kt METAR NTAA 140700Z AUTO 07004KT 040V100 9999 FEW088 BKN110 23/21 Q1014 TEMPO 05020G30KT 2000 SHRA SCT008 FEW015TCU BKN035
20:30
V
24 °C 10 km+ - 090° 090° 4 kt METAR NTAA 140630Z AUTO 09004KT 040V140 CAVOK 24/21 Q1014 TEMPO 05020G30KT 2000 SHRA SCT008 FEW015TCU BKN035
20:00
V
24 °C 10 km+ 9.000 ft 060° 060° 6 kt METAR NTAA 140600Z AUTO 06006KT 030V090 9999 FEW010 OVC090 24/22 Q1014 TEMPO 05020G30KT 2000 SHRA SCT008 FEW015TCU BKN035
19:30
V
24 °C 10 km+ 9.400 ft 060° 060° 12 kt METAR NTAA 140530Z AUTO 06012KT 9999 SCT012 BKN094 OVC140 24/22 Q1014 TEMPO 05020G30KT 2000 SHRA SCT008 FEW015TCU BKN035
19:00
V
24 °C 10 km+ 9.000 ft 060° 060° 13 kt METAR NTAA 140500Z AUTO 06013KT 9999 SCT015 OVC090 24/22 Q1014 TEMPO 3000 SHRA FEW012 FEW016CB BKN035
18:30
V
24 °C 10 km+ 9.200 ft 070° 070° 14 kt METAR NTAA 140430Z AUTO 07014KT 9999 -RA SCT009 SCT015 OVC092 24/22 Q1014 TEMPO 3000 SHRA FEW012 FEW016CB BKN035
18:00
V
24 °C 10 km+ 8.200 ft 050° 050° 18 kt METAR NTAA 140400Z AUTO 05018KT 9999 -RA SCT007 SCT032 OVC082 24/23 Q1013 TEMPO 3000 SHRA FEW012 FEW016CB BKN035
17:30
V
25 °C 10 km+ 6.200 ft 030° 030° 15 kt METAR NTAA 140330Z AUTO 03015KT 9999 FEW014 SCT044 BKN062 25/23 Q1013 TEMPO 3000 SHRA FEW012 FEW016CB BKN035
17:00
M
24 °C 10 km+ 1.500 ft Var Var 4 kt METAR NTAA 140300Z AUTO VRB04KT 9999 -RA BKN015 OVC029 24/22 Q1013 TEMPO 3000 SHRA FEW012 FEW016CB BKN035
16:30
M
25 °C 10 km+ 1.600 ft 070° 070° 10 kt METAR NTAA 140230Z AUTO 07010KT 9999 BKN016 OVC022 25/22 Q1013 TEMPO 3000 SHRA FEW012 FEW016CB BKN035
16:00
M
25 °C 10 km+ 1.200 ft 060° 060° 10 kt METAR NTAA 140200Z AUTO 06010KT 9999 BKN012 BKN040 25/23 Q1013 TEMPO 3000 SHRA FEW012 FEW016CB BKN035
15:30
I
26 °C 10 km+ 900 ft 040° 040° 7 kt METAR NTAA 140130Z AUTO 04007KT 360V060 9999 -RA BKN009 BKN035 BKN048 26/24 Q1013 TEMPO 3000 SHRA FEW012 FEW016CB BKN035
15:00
V
26 °C 10 km+ 4.900 ft 020° 020° 4 kt METAR NTAA 140100Z AUTO 02004KT 340V060 9999 -RA FEW032 BKN049 BKN100 26/24 Q1013 TEMPO 3000 SHRA FEW012 FEW016CB BKN035
14:30
M
26 °C 10 km+ 2.800 ft 040° 040° 4 kt METAR NTAA 140030Z AUTO 04004KT 020V080 9999 -RA FEW023 BKN028 BKN044 26/23 Q1013 TEMPO 3000 SHRA FEW012 FEW016CB BKN035
14:00
M
26 °C 10 km+ 2.400 ft 020° 020° 3 kt METAR NTAA 140000Z AUTO 02003KT 340V060 9999 FEW013 SCT018 BKN024 26/23 Q1013 TEMPO 3000 SHRA FEW012 FEW016CB BKN035
13:30
M
26 °C 10 km+ 1.800 ft 200° 200° 4 kt METAR NTAA 132330Z AUTO 20004KT 160V220 9999 BKN018 BKN029 BKN045 26/23 Q1013 TEMPO 3000 SHRA FEW012 FEW016CB BKN035 BECMG 05012KT
13:00
M
26 °C 10 km+ 3.000 ft 190° 190° 5 kt METAR NTAA 132300Z AUTO 19005KT 9999 SCT014 BKN030 BKN043 26/23 Q1013 TEMPO 04020G30KT 1500 TSRA BKN014 SCT015CB
12:30
V
26 °C 10 km+ 3.400 ft Var Var 1 kt METAR NTAA 132230Z AUTO VRB01KT 9999 -RA FEW011 BKN034 BKN088 26/24 Q1013 TEMPO 04020G30KT 1500 TSRA BKN014 SCT015CB
12:00
V
25 °C 10 km+ 7.000 ft 060° 060° 6 kt METAR NTAA 132200Z AUTO 06006KT 9999 FEW033 SCT058 BKN070 25/23 Q1013 TEMPO 4000 SHRA
11:30
M
26 °C 10 km+ 2.500 ft 050° 050° 10 kt METAR NTAA 132130Z AUTO 05010KT 9999 FEW020 BKN025 BKN092 26/23 Q1014 TEMPO 4000 SHRA
11:00
M
26 °C 10 km+ 2.600 ft 050° 050° 7 kt METAR NTAA 132100Z AUTO 05007KT 350V090 9999 FEW016 BKN026 BKN120 26/24 Q1014 TEMPO 4000 SHRA
10:30
V
27 °C 10 km+ 12.000 ft 010° 010° 3 kt METAR NTAA 132030Z AUTO 01003KT 9999 FEW041 SCT072 BKN120 27/23 Q1014 TEMPO 4000 SHRA
10:00
V
26 °C 10 km+ 5.800 ft 050° 050° 3 kt METAR NTAA 132000Z AUTO 05003KT 020V110 9999 FEW034 BKN058 BKN068 26/23 Q1014 TEMPO 4000 SHRA
09:30
V
26 °C 10 km+ 3.900 ft 030° 030° 4 kt METAR NTAA 131930Z AUTO 03004KT 360V060 9999 SCT030 BKN039 BKN054 26/24 Q1014 TEMPO 4000 SHRA
09:00
V
26 °C 10 km+ 5.400 ft 060° 060° 6 kt METAR NTAA 131900Z AUTO 06006KT 9999 SCT028 SCT042 BKN054 26/23 Q1014 TEMPO 4000 SHRA
08:30
V
25 °C 10 km+ 10.000 ft 070° 070° 5 kt METAR NTAA 131830Z AUTO 07005KT 9999 FEW044 BKN100 BKN120 25/23 Q1013 TEMPO 4000 SHRA
08:00
V
25 °C 10 km+ 10.000 ft 050° 050° 5 kt METAR NTAA 131800Z AUTO 05005KT 9999 -RA FEW023 SCT039 BKN100 25/23 Q1014 TEMPO 4000 SHRA
07:30
V
25 °C 9 km 4.800 ft 060° 060° 3 kt METAR NTAA 131730Z AUTO 06003KT 9000 -RA FEW023 SCT034 BKN048 25/23 Q1013 TEMPO 4000 SHRA
07:00
M
25 °C 10 km+ 2.000 ft 210° 210° 2 kt METAR NTAA 131700Z AUTO 21002KT 9999 -RA BKN020 BKN026 OVC130 25/23 Q1013 TEMPO 4000 SHRA
06:30
M
25 °C 10 km+ 2.200 ft 080° 080° 4 kt METAR NTAA 131630Z AUTO 08004KT 9999 FEW015 BKN022 OVC130 25/22 Q1012 TEMPO 4000 SHRA
06:00
V
25 °C 10 km+ 11.000 ft Var Var 2 kt METAR NTAA 131600Z AUTO VRB02KT 9999 SCT024 OVC110 25/23 Q1012 TEMPO 4000 SHRA
05:30
V
25 °C 10 km+ 12.000 ft 150° 150° 5 kt METAR NTAA 131530Z AUTO 15005KT 9999 FEW017 BKN120 OVC150 25/23 Q1011 TEMPO 4000 SHRA
05:00
V
25 °C 10 km+ 16.000 ft 180° 180° 8 kt METAR NTAA 131500Z AUTO 18008KT 9999 FEW070 SCT110 BKN160 25/23 Q1011 TEMPO 4000 SHRA
04:30
V
25 °C 10 km+ 12.000 ft 160° 160° 6 kt METAR NTAA 131430Z AUTO 16006KT 9999 FEW072 OVC120 25/23 Q1011 TEMPO 4000 SHRA
04:00
V
25 °C 10 km+ - Var Var 2 kt METAR NTAA 131400Z AUTO VRB02KT CAVOK 25/22 Q1010 TEMPO 4000 SHRA
03:30
M
25 °C 10 km+ 1.900 ft 080° 080° 5 kt METAR NTAA 131330Z AUTO 08005KT 040V100 9999 SCT014 BKN019 OVC140 25/22 Q1010 TEMPO 4000 SHRA
03:00
M
25 °C 10 km+ 1.800 ft 070° 070° 6 kt METAR NTAA 131300Z AUTO 07006KT 9999 SCT013 BKN018 BKN066 25/23 Q1010 TEMPO 4000 SHRA
02:30
M
25 °C 10 km+ 1.800 ft 060° 060° 5 kt METAR NTAA 131230Z AUTO 06005KT 9999 FEW013 BKN018 BKN068 25/23 Q1011 TEMPO 4000 SHRA
02:00
V
25 °C 10 km+ 6.600 ft 110° 110° 3 kt METAR NTAA 131200Z AUTO 11003KT 9999 SCT017 BKN066 OVC150 25/23 Q1011 TEMPO 4000 SHRA
01:30
V
25 °C 10 km+ 6.400 ft 170° 170° 5 kt METAR NTAA 131130Z AUTO 17005KT 9999 BKN064 OVC160 25/23 Q1011 TEMPO 4000 SHRA
01:00
V
25 °C 10 km+ 6.200 ft 170° 170° 6 kt METAR NTAA 131100Z AUTO 17006KT 9999 FEW014 OVC062 25/23 Q1011 TEMPO VRB15G25KT 3000 SHRA FEW016CB SCT018 BKN035
00:30
M
25 °C 10 km+ 1.300 ft 360° 360° 0 kt METAR NTAA 131030Z AUTO 00000KT 9999 BKN013 BKN062 BKN160 25/23 Q1011 TEMPO VRB15G25KT 3000 SHRA FEW016CB SCT018 BKN035
00:00
V
25 °C 10 km+ 16.000 ft 050° 050° 5 kt METAR NTAA 131000Z AUTO 05005KT 9999 FEW009/// SCT018/// OVC160/// ///TCU 25/23 Q1012 TEMPO 28010KT 4000 SHRA BECMG FEW020 BKN055

12 juillet 2024

Temps Code Temps Temp. Vue Base cloud Vent METAR/SPECI
23:30
V
25 °C 10 km+ 7.000 ft 060° 060° 4 kt METAR NTAA 130930Z AUTO 06004KT 9999 -RA FEW019 SCT041 BKN070 25/23 Q1012 TEMPO 28010KT 4000 SHRA
23:00
V
25 °C 10 km+ 7.000 ft 170° 170° 4 kt METAR NTAA 130900Z AUTO 17004KT 9999 FEW054 BKN070 OVC084 25/23 Q1012 TEMPO 28010KT 4000 SHRA
22:30
V
25 °C 10 km+ 7.000 ft 200° 200° 10 kt METAR NTAA 130830Z AUTO 20010KT 9999 FEW022 OVC070 25/23 Q1012 TEMPO 28010KT 4000 SHRA
22:00
V
26 °C 10 km+ 7.200 ft 200° 200° 9 kt METAR NTAA 130800Z AUTO 20009KT 9999 -RA FEW043 BKN072 OVC084 26/23 Q1012 TEMPO 28010KT 4000 SHRA
21:30
V
26 °C 10 km+ 7.400 ft 060° 060° 3 kt METAR NTAA 130730Z AUTO 06003KT 020V090 9999 FEW060 OVC074 26/23 Q1012 TEMPO 28010KT 4000 SHRA
21:00
V
25 °C 10 km+ 7.600 ft 070° 070° 3 kt METAR NTAA 130700Z AUTO 07003KT 9999 FEW056 OVC076 25/23 Q1012 TEMPO 28010KT 4000 SHRA
20:30
V
26 °C 10 km+ 5.800 ft 060° 060° 3 kt METAR NTAA 130630Z AUTO 06003KT 9999 OVC058 26/23 Q1012 TEMPO 28010KT 4000 SHRA
20:00
V
26 °C 10 km+ 5.400 ft 060° 060° 3 kt METAR NTAA 130600Z AUTO 06003KT 9999 FEW019 BKN054 BKN160 26/23 Q1012 TEMPO 28010KT 4000 SHRA
Signaler les modifications